Time;durP1;ratioP1;P1;durP2;ratioP2;P2;SDS_P1;SDS_P2;PMS_P1;PMS_P2;Temp;Humidity;BMP_temperature;BMP_pressure;BME280_temperature;BME280_humidity;BME280_pressure;Samples;Min_cycle;Max_cycle;Signal;HPM_P1;HPM_P2
2024/02/24 00:01:24;;;;;;;2.53;0.63;;;4.90;99.90;;;;;;4976848;28;20482;-86
2024/02/24 00:03:50;;;;;;;4.40;0.90;;;4.90;99.90;;;;;;4997346;28;20031;-86
2024/02/24 00:06:15;;;;;;;3.47;0.68;;;4.80;99.90;;;;;;4978769;28;20076;-86
2024/02/24 00:08:42;;;;;;;3.13;0.65;;;4.80;99.90;;;;;;4991522;28;20026;-86
2024/02/24 00:11:08;;;;;;;3.20;1.05;;;4.70;99.90;;;;;;4993065;28;20053;-86
2024/02/24 00:13:33;;;;;;;1.83;0.70;;;4.60;99.90;;;;;;4989035;28;20069;-86
2024/02/24 00:15:59;;;;;;;3.38;0.85;;;4.60;99.90;;;;;;4978958;28;20478;-86
2024/02/24 00:18:25;;;;;;;2.92;0.80;;;4.50;99.90;;;;;;4972433;28;20041;-86
2024/02/24 00:20:51;;;;;;;4.28;0.80;;;4.40;99.90;;;;;;4975577;28;20113;-86
2024/02/24 00:23:16;;;;;;;3.80;0.73;;;4.40;99.90;;;;;;4977041;28;20080;-86
2024/02/24 00:25:42;;;;;;;3.33;0.90;;;4.30;99.90;;;;;;4977099;28;20100;-86
2024/02/24 00:28:09;;;;;;;2.95;0.85;;;4.30;99.90;;;;;;4975355;28;20022;-86
2024/02/24 00:30:36;;;;;;;2.33;0.75;;;4.30;99.90;;;;;;4973717;28;20083;-86
2024/02/24 00:33:02;;;;;;;3.88;0.80;;;4.20;99.90;;;;;;4967151;28;20034;-86
2024/02/24 00:35:28;;;;;;;3.80;0.80;;;4.20;99.90;;;;;;4982456;28;20023;-86
2024/02/24 00:37:55;;;;;;;2.17;0.75;;;4.20;99.90;;;;;;4975201;28;20034;-86
2024/02/24 00:40:21;;;;;;;2.75;0.82;;;4.20;99.90;;;;;;4975103;28;20034;-86
2024/02/24 00:42:46;;;;;;;3.38;0.80;;;4.10;99.90;;;;;;4976356;28;20054;-86
2024/02/24 00:45:12;;;;;;;3.20;0.80;;;4.10;99.90;;;;;;4978892;28;20061;-86
2024/02/24 00:47:38;;;;;;;2.97;0.82;;;4.10;99.90;;;;;;4979623;28;20509;-86
2024/02/24 00:50:04;;;;;;;3.03;0.75;;;4.10;99.90;;;;;;4970614;28;20034;-86
2024/02/24 00:52:31;;;;;;;3.47;0.73;;;4.10;99.90;;;;;;4971117;28;20038;-86
2024/02/24 00:54:57;;;;;;;3.17;0.93;;;4.00;99.90;;;;;;4978717;28;20072;-86
2024/02/24 00:57:24;;;;;;;1.92;0.82;;;4.00;99.90;;;;;;4976117;28;20046;-86
2024/02/24 00:59:50;;;;;;;3.00;0.80;;;4.10;99.90;;;;;;4974443;28;20030;-86
2024/02/24 01:02:15;;;;;;;5.93;1.83;;;4.00;99.90;;;;;;4991123;28;20026;-86
2024/02/24 01:04:41;;;;;;;2.60;0.80;;;4.00;99.90;;;;;;4976814;28;20513;-86
2024/02/24 01:07:07;;;;;;;3.22;0.90;;;4.00;99.90;;;;;;4972022;28;20058;-86
2024/02/24 01:09:33;;;;;;;1.98;0.77;;;4.00;99.90;;;;;;4979888;28;20367;-86
2024/02/24 01:11:59;;;;;;;3.35;0.95;;;4.00;99.90;;;;;;4975537;28;20088;-86
2024/02/24 01:14:24;;;;;;;2.72;0.60;;;4.00;99.90;;;;;;5012555;28;20038;-86
2024/02/24 01:16:50;;;;;;;3.60;1.02;;;4.00;99.90;;;;;;4986161;28;20109;-86
2024/02/24 01:19:16;;;;;;;3.22;0.93;;;4.00;99.90;;;;;;4977973;28;20084;-86
2024/02/24 01:21:42;;;;;;;3.25;1.08;;;4.10;99.90;;;;;;4975408;28;20023;-86
2024/02/24 01:24:08;;;;;;;4.07;1.15;;;4.10;99.90;;;;;;4971691;28;20035;-86
2024/02/24 01:26:33;;;;;;;5.32;0.90;;;4.10;99.90;;;;;;4956666;28;20022;-86
2024/02/24 01:28:59;;;;;;;2.83;0.82;;;4.10;99.90;;;;;;4983499;28;20057;-86
2024/02/24 01:31:24;;;;;;;3.15;1.20;;;4.10;99.90;;;;;;4972107;28;20067;-86
2024/02/24 01:33:50;;;;;;;3.00;1.20;;;4.10;99.90;;;;;;4970023;28;20030;-86
2024/02/24 01:36:16;;;;;;;4.43;1.23;;;4.10;99.90;;;;;;4976011;28;20766;-86
2024/02/24 01:38:42;;;;;;;5.07;1.15;;;4.10;99.90;;;;;;4976108;28;20027;-85
2024/02/24 01:41:07;;;;;;;4.68;1.15;;;4.10;99.90;;;;;;4975709;28;20027;-86
2024/02/24 01:43:37;;;;;;;3.50;0.98;;;4.10;99.90;;;;;;4974807;28;20033;-86
2024/02/24 01:46:03;;;;;;;4.63;1.00;;;4.10;99.90;;;;;;4975597;28;20027;-86
2024/02/24 01:48:34;;;;;;;3.42;0.95;;;4.20;99.90;;;;;;4971815;28;20019;-85
2024/02/24 01:51:01;;;;;;;4.15;1.05;;;4.20;99.90;;;;;;4968497;28;20460;-86
2024/02/24 01:53:28;;;;;;;3.30;1.27;;;4.20;99.90;;;;;;4991493;28;20026;-86
2024/02/24 01:55:54;;;;;;;2.33;0.80;;;4.20;99.90;;;;;;4975083;28;20026;-85
2024/02/24 01:58:20;;;;;;;3.75;1.17;;;4.20;99.90;;;;;;4975465;28;20084;-86
2024/02/24 02:00:46;;;;;;;3.50;0.90;;;4.20;99.90;;;;;;4979969;28;20112;-86
2024/02/24 02:03:12;;;;;;;2.50;0.88;;;4.20;99.90;;;;;;4972718;28;20486;-86
2024/02/24 02:05:40;;;;;;;3.58;0.93;;;4.20;99.90;;;;;;4983376;28;20049;-86
2024/02/24 02:08:06;;;;;;;5.22;1.10;;;4.30;99.90;;;;;;4975194;28;20034;-86
2024/02/24 02:10:48;;;;;;;2.55;0.70;;;4.30;99.90;;;;;;4979806;28;20117;-87
2024/02/24 02:13:14;;;;;;;;;;;4.30;99.90;;;;;;4981597;28;20572;-86
2024/02/24 02:15:44;;;;;;;2.53;0.80;;;4.30;99.90;;;;;;4962248;28;19910;-86
2024/02/24 02:18:10;;;;;;;2.70;0.60;;;4.20;99.90;;;;;;4981831;28;20086;-87
2024/02/24 02:20:36;;;;;;;3.08;0.90;;;4.20;99.90;;;;;;4972429;28;20391;-86
2024/02/24 02:23:02;;;;;;;3.38;0.60;;;4.20;99.90;;;;;;4977825;28;20034;-86
2024/02/24 02:25:27;;;;;;;2.88;0.80;;;4.20;99.90;;;;;;4989089;28;20022;-86
2024/02/24 02:27:53;;;;;;;1.85;0.70;;;4.20;99.90;;;;;;4979289;28;20088;-85
2024/02/24 02:30:19;;;;;;;2.30;0.50;;;4.20;99.90;;;;;;4980108;28;20026;-86
2024/02/24 02:32:44;;;;;;;4.18;0.60;;;4.20;99.90;;;;;;4980664;28;20042;-86
2024/02/24 02:35:11;;;;;;;1.23;0.65;;;4.20;99.90;;;;;;4978327;28;20546;-86
2024/02/24 02:37:37;;;;;;;3.50;1.35;;;4.30;99.90;;;;;;4977890;28;20031;-86
2024/02/24 02:40:03;;;;;;;2.80;0.60;;;4.30;99.90;;;;;;4978256;28;20030;-86
2024/02/24 02:42:29;;;;;;;3.03;0.68;;;4.30;99.90;;;;;;4996075;28;20076;-86
2024/02/24 02:44:55;;;;;;;1.27;0.50;;;4.30;99.90;;;;;;4978351;28;20589;-86
2024/02/24 02:47:20;;;;;;;1.52;0.50;;;4.30;99.90;;;;;;4975911;28;20129;-86
2024/02/24 02:49:46;;;;;;;1.92;0.57;;;4.40;99.90;;;;;;4992255;28;20026;-86
2024/02/24 02:52:12;;;;;;;1.88;0.57;;;4.40;99.90;;;;;;4977377;28;20041;-86
2024/02/24 02:54:37;;;;;;;5.32;0.70;;;4.40;99.90;;;;;;4985394;28;20107;-86
2024/02/24 02:57:03;;;;;;;1.65;0.70;;;4.40;99.90;;;;;;4989760;28;20057;-85
2024/02/24 02:59:28;;;;;;;1.65;0.60;;;4.40;99.90;;;;;;4977937;28;20541;-86
2024/02/24 03:01:58;;;;;;;1.67;0.60;;;4.50;99.90;;;;;;4978291;28;20118;-86
2024/02/24 03:04:24;;;;;;;3.88;0.57;;;4.50;99.90;;;;;;4978580;28;20060;-85
2024/02/24 03:06:50;;;;;;;4.82;0.70;;;4.50;99.90;;;;;;4995446;28;20050;-86
2024/02/24 03:09:15;;;;;;;1.85;0.60;;;4.50;99.90;;;;;;4973790;28;20040;-86
2024/02/24 03:11:41;;;;;;;2.10;0.73;;;4.50;99.90;;;;;;4977090;28;20041;-86
2024/02/24 03:14:08;;;;;;;1.20;0.50;;;4.60;99.90;;;;;;4972583;28;20044;-86
2024/02/24 03:16:34;;;;;;;2.78;0.47;;;4.60;99.90;;;;;;4976872;28;20483;-86
2024/02/24 03:18:59;;;;;;;2.35;0.50;;;4.60;99.90;;;;;;4972893;28;20130;-85
2024/02/24 03:21:31;;;;;;;1.33;0.57;;;4.60;99.90;;;;;;4973504;28;20045;-86
2024/02/24 03:23:56;;;;;;;2.50;0.60;;;4.60;99.90;;;;;;4996435;28;20023;-85
2024/02/24 03:26:22;;;;;;;1.55;0.50;;;4.70;99.90;;;;;;4976466;28;20089;-86
2024/02/24 03:28:47;;;;;;;2.80;0.50;;;4.70;99.90;;;;;;4985718;28;20065;-84
2024/02/24 03:31:13;;;;;;;4.18;0.60;;;4.70;99.90;;;;;;4983287;28;20025;-85
2024/02/24 03:33:39;;;;;;;3.30;0.98;;;4.80;99.90;;;;;;4976196;28;20436;-85
2024/02/24 03:36:04;;;;;;;1.63;0.50;;;4.80;99.90;;;;;;4978764;28;20230;-85
2024/02/24 03:38:30;;;;;;;2.22;0.52;;;4.80;99.90;;;;;;4977530;28;20061;-86
2024/02/24 03:40:55;;;;;;;1.88;0.60;;;4.80;99.90;;;;;;4983966;28;20019;-85
2024/02/24 03:43:21;;;;;;;2.60;0.60;;;4.90;99.90;;;;;;4973445;28;20037;-86
2024/02/24 03:45:46;;;;;;;3.00;0.60;;;4.90;99.90;;;;;;4973605;28;20022;-85
2024/02/24 03:48:12;;;;;;;1.35;0.50;;;4.90;99.90;;;;;;4958069;28;20034;-85
2024/02/24 03:50:38;;;;;;;1.75;0.50;;;4.90;99.90;;;;;;4976126;28;20116;-85
2024/02/24 03:53:03;;;;;;;1.50;0.45;;;4.90;99.90;;;;;;4981455;28;20122;-85
2024/02/24 03:55:29;;;;;;;2.22;0.70;;;4.90;99.90;;;;;;4976864;28;20399;-86
2024/02/24 03:57:55;;;;;;;1.20;0.50;;;4.80;99.90;;;;;;4981828;28;20053;-85
2024/02/24 04:00:20;;;;;;;1.38;0.40;;;4.80;99.90;;;;;;4977544;28;20113;-85
2024/02/24 04:02:46;;;;;;;2.83;0.50;;;4.80;99.90;;;;;;4972722;28;20093;-85
2024/02/24 04:05:12;;;;;;;3.72;0.60;;;4.70;99.90;;;;;;4994425;28;20026;-85
2024/02/24 04:07:37;;;;;;;1.80;0.50;;;4.60;99.90;;;;;;4976996;28;20026;-85
2024/02/24 04:10:04;;;;;;;1.98;0.55;;;4.70;99.90;;;;;;4994052;28;20077;-85
2024/02/24 04:12:30;;;;;;;1.95;0.50;;;4.60;99.90;;;;;;4977719;28;20038;-85
2024/02/24 04:14:55;;;;;;;1.42;0.40;;;4.60;99.90;;;;;;4993796;28;20479;-86
2024/02/24 04:17:21;;;;;;;4.65;0.60;;;4.60;99.90;;;;;;4975706;28;20030;-85
2024/02/24 04:19:46;;;;;;;1.83;0.50;;;4.60;99.90;;;;;;4989103;28;20034;-85
2024/02/24 04:22:12;;;;;;;1.58;0.55;;;4.60;99.90;;;;;;4985102;28;20390;-85
2024/02/24 04:24:37;;;;;;;1.38;0.40;;;4.70;99.90;;;;;;4982770;28;20071;-85
2024/02/24 04:27:03;;;;;;;0.77;0.40;;;4.70;99.90;;;;;;4977160;28;20034;-85
2024/02/24 04:29:29;;;;;;;1.60;0.73;;;4.80;99.90;;;;;;4978513;28;20022;-85
2024/02/24 04:31:54;;;;;;;2.28;0.50;;;4.70;99.90;;;;;;4995356;28;20026;-86
2024/02/24 04:34:20;;;;;;;1.60;0.50;;;4.80;99.90;;;;;;4973383;28;20419;-85
2024/02/24 04:36:46;;;;;;;4.13;0.50;;;4.80;99.90;;;;;;4973629;28;20030;-85
2024/02/24 04:39:11;;;;;;;1.50;0.50;;;4.80;99.90;;;;;;4988335;28;20490;-86
2024/02/24 04:41:37;;;;;;;2.00;0.60;;;4.80;99.90;;;;;;4980559;28;20028;-86
2024/02/24 04:44:03;;;;;;;1.48;0.50;;;4.80;99.90;;;;;;4974082;28;20031;-85
2024/02/24 04:46:29;;;;;;;2.15;0.55;;;4.90;99.90;;;;;;4966425;28;20528;-85
2024/02/24 04:48:54;;;;;;;1.60;0.50;;;4.90;99.90;;;;;;4974693;28;20035;-85
2024/02/24 04:51:23;;;;;;;3.97;0.82;;;4.90;99.90;;;;;;4976906;28;20026;-85
2024/02/24 04:53:48;;;;;;;1.40;0.60;;;4.90;99.90;;;;;;4989080;28;20037;-85
2024/02/24 04:56:16;;;;;;;4.18;0.85;;;4.90;99.90;;;;;;4977140;28;20042;-85
2024/02/24 04:58:42;;;;;;;1.60;0.63;;;4.90;99.90;;;;;;4977750;28;20212;-85
2024/02/24 05:01:08;;;;;;;2.10;0.93;;;5.00;99.90;;;;;;4976605;28;20023;-85
2024/02/24 05:03:34;;;;;;;3.25;0.80;;;4.90;99.90;;;;;;4976309;28;20092;-85
2024/02/24 05:06:00;;;;;;;2.28;0.80;;;4.90;99.90;;;;;;4972358;28;20018;-86
2024/02/24 05:08:25;;;;;;;2.50;0.70;;;5.00;99.90;;;;;;4993396;28;20176;-85
2024/02/24 05:10:51;;;;;;;1.77;0.95;;;4.90;99.90;;;;;;4975408;28;20479;-85
2024/02/24 05:13:17;;;;;;;3.80;0.90;;;5.00;99.90;;;;;;4993378;28;20038;-85
2024/02/24 05:15:43;;;;;;;4.07;1.00;;;5.00;99.90;;;;;;4974762;28;20463;-85
2024/02/24 05:18:08;;;;;;;2.05;0.70;;;5.00;99.90;;;;;;4993323;28;20022;-85
2024/02/24 05:20:34;;;;;;;2.78;1.08;;;5.00;99.90;;;;;;4975156;28;20049;-85
2024/02/24 05:23:01;;;;;;;3.65;1.25;;;5.00;99.90;;;;;;4975720;28;20030;-85
2024/02/24 05:25:27;;;;;;;2.63;0.90;;;5.00;99.90;;;;;;4975260;28;20077;-85
2024/02/24 05:27:53;;;;;;;1.80;0.80;;;5.00;99.90;;;;;;4977877;28;20058;-85
2024/02/24 05:30:19;;;;;;;3.13;0.70;;;5.10;99.90;;;;;;4958728;28;20026;-85
2024/02/24 05:32:45;;;;;;;2.65;0.80;;;5.10;99.90;;;;;;4976122;28;20038;-85
2024/02/24 05:35:11;;;;;;;3.92;1.00;;;5.10;99.90;;;;;;4975922;28;20079;-85
2024/02/24 05:37:36;;;;;;;2.75;1.20;;;5.10;99.90;;;;;;4986637;28;20497;-86
2024/02/24 05:40:02;;;;;;;1.92;0.98;;;5.10;99.90;;;;;;4992227;28;20023;-85
2024/02/24 05:42:28;;;;;;;4.88;1.10;;;5.10;99.90;;;;;;4993327;28;20030;-84
2024/02/24 05:44:54;;;;;;;2.13;1.23;;;5.00;99.90;;;;;;4975234;28;20080;-85
2024/02/24 05:47:20;;;;;;;3.05;1.25;;;5.00;99.90;;;;;;4986562;28;20030;-85
2024/02/24 05:49:45;;;;;;;2.40;1.58;;;5.00;99.90;;;;;;4975804;28;20121;-85
2024/02/24 05:52:11;;;;;;;2.47;1.05;;;5.00;99.90;;;;;;4975289;28;20037;-85
2024/02/24 05:54:39;;;;;;;3.45;0.93;;;5.00;99.90;;;;;;4978722;28;20030;-85
2024/02/24 05:57:05;;;;;;;2.60;1.05;;;5.00;99.90;;;;;;4994387;28;20483;-85
2024/02/24 05:59:30;;;;;;;3.80;1.20;;;5.00;99.90;;;;;;4983061;28;20176;-85
2024/02/24 06:01:56;;;;;;;2.25;1.27;;;5.00;99.90;;;;;;4978643;28;20022;-85
2024/02/24 06:04:22;;;;;;;4.13;1.15;;;5.00;99.90;;;;;;4979220;28;20027;-85
2024/02/24 06:06:48;;;;;;;7.35;1.40;;;5.10;99.90;;;;;;5000369;28;20497;-85
2024/02/24 06:09:14;;;;;;;3.45;1.00;;;5.00;99.90;;;;;;4989843;28;20023;-86
2024/02/24 06:11:41;;;;;;;3.25;1.33;;;5.00;99.90;;;;;;4978578;28;20034;-85
2024/02/24 06:14:06;;;;;;;4.53;1.75;;;5.00;99.90;;;;;;4995432;28;20057;-85
2024/02/24 06:16:32;;;;;;;8.65;1.65;;;5.10;99.90;;;;;;4974717;28;20025;-85
2024/02/24 06:18:58;;;;;;;2.42;1.00;;;5.10;99.90;;;;;;4974483;28;20030;-86
2024/02/24 06:21:25;;;;;;;2.70;1.27;;;5.10;99.90;;;;;;4969193;28;20085;-85
2024/02/24 06:23:51;;;;;;;3.15;1.50;;;5.10;99.90;;;;;;4972814;28;20118;-84
2024/02/24 06:26:17;;;;;;;2.75;1.25;;;5.10;99.90;;;;;;4973753;28;20113;-86
2024/02/24 06:28:43;;;;;;;2.58;1.15;;;5.10;99.90;;;;;;4994506;28;20053;-86
2024/02/24 06:31:08;;;;;;;3.30;1.33;;;5.10;99.90;;;;;;4992211;28;20487;-86
2024/02/24 06:33:34;;;;;;;3.65;1.40;;;5.10;99.90;;;;;;4977672;28;20047;-85
2024/02/24 06:36:02;;;;;;;4.90;1.63;;;5.10;99.90;;;;;;4975592;28;20056;-85
2024/02/24 06:38:28;;;;;;;3.53;1.20;;;5.10;99.90;;;;;;4969467;28;20030;-86
2024/02/24 06:40:53;;;;;;;5.15;1.30;;;5.10;99.90;;;;;;4977906;28;20490;-85
2024/02/24 06:43:19;;;;;;;2.45;1.38;;;5.10;99.90;;;;;;4977988;28;20022;-85
2024/02/24 06:45:44;;;;;;;4.32;1.25;;;5.10;99.90;;;;;;4968447;28;20560;-85
2024/02/24 06:48:10;;;;;;;4.50;1.40;;;5.10;99.90;;;;;;4977955;28;20232;-85
2024/02/24 06:50:35;;;;;;;2.47;1.20;;;5.10;99.90;;;;;;4978251;28;20161;-85
2024/02/24 06:53:01;;;;;;;4.03;1.30;;;5.10;99.90;;;;;;4967124;28;20046;-86
2024/02/24 06:55:27;;;;;;;3.67;1.20;;;5.20;99.90;;;;;;4975487;28;20057;-85
2024/02/24 06:57:53;;;;;;;5.43;1.55;;;5.20;99.90;;;;;;4977975;28;20057;-85
2024/02/24 07:00:18;;;;;;;2.58;1.55;;;5.20;99.90;;;;;;4976539;28;20106;-86
2024/02/24 07:02:44;;;;;;;3.17;1.23;;;5.20;99.90;;;;;;4977680;28;20065;-85
2024/02/24 07:05:09;;;;;;;3.05;1.35;;;5.10;99.90;;;;;;4972503;28;20073;-86
2024/02/24 07:07:35;;;;;;;3.55;1.30;;;5.20;99.90;;;;;;4976826;28;20061;-86
2024/02/24 07:10:04;;;;;;;2.97;1.58;;;5.20;99.90;;;;;;4977169;28;20447;-86
2024/02/24 07:12:30;;;;;;;4.53;1.80;;;5.20;99.90;;;;;;4966891;28;20081;-86
2024/02/24 07:14:56;;;;;;;5.15;1.92;;;5.10;99.90;;;;;;4980894;28;20019;-86
2024/02/24 07:17:21;;;;;;;2.97;1.35;;;5.20;99.90;;;;;;4977877;28;20130;-86
2024/02/24 07:19:47;;;;;;;3.78;2.17;;;5.20;99.90;;;;;;4977953;28;20073;-86
2024/02/24 07:22:14;;;;;;;7.72;3.80;;;5.30;99.90;;;;;;4968428;28;20402;-87
2024/02/24 07:24:40;;;;;;;3.55;2.08;;;5.30;99.90;;;;;;4978177;28;20030;-87
2024/02/24 07:27:05;;;;;;;6.43;1.77;;;5.40;99.90;;;;;;4977915;28;20548;-86
2024/02/24 07:29:31;;;;;;;4.93;1.90;;;5.40;99.90;;;;;;4978272;28;20022;-87
2024/02/24 07:31:57;;;;;;;3.10;1.90;;;5.40;99.90;;;;;;4977374;28;20390;-86
2024/02/24 07:34:22;;;;;;;3.65;1.67;;;5.50;99.90;;;;;;4978083;28;20041;-86
2024/02/24 07:36:48;;;;;;;4.50;1.75;;;5.50;99.90;;;;;;4975480;28;20022;-87
2024/02/24 07:39:13;;;;;;;5.30;1.60;;;5.50;99.90;;;;;;4972467;28;20027;-87
2024/02/24 07:41:40;;;;;;;2.95;1.83;;;5.50;99.90;;;;;;4964441;28;20026;-86
2024/02/24 07:44:07;;;;;;;4.20;1.75;;;5.50;99.90;;;;;;4975514;28;20066;-87
2024/02/24 07:46:32;;;;;;;4.53;2.30;;;5.50;99.90;;;;;;4977955;28;20023;-87
2024/02/24 07:48:59;;;;;;;4.07;2.25;;;5.50;99.90;;;;;;4977480;28;20030;-87
2024/02/24 07:51:26;;;;;;;2.88;2.03;;;5.50;99.90;;;;;;4977697;28;20037;-87
2024/02/24 07:53:53;;;;;;;5.35;1.60;;;5.50;99.90;;;;;;4976246;28;20031;-87
2024/02/24 07:56:20;;;;;;;5.05;1.77;;;5.60;99.90;;;;;;4977174;28;20042;-87
2024/02/24 07:58:46;;;;;;;2.30;0.95;;;5.60;99.90;;;;;;4977366;28;20095;-88
2024/02/24 08:01:11;;;;;;;2.00;1.20;;;5.70;99.90;;;;;;4975861;28;20026;-87
2024/02/24 08:03:37;;;;;;;5.13;1.45;;;5.70;99.90;;;;;;4973986;28;20117;-87
2024/02/24 08:06:03;;;;;;;3.80;1.38;;;5.80;99.90;;;;;;4984131;28;20056;-86
2024/02/24 08:08:28;;;;;;;2.67;1.20;;;5.90;99.90;;;;;;4990916;28;20069;-87
2024/02/24 08:10:54;;;;;;;3.58;1.38;;;6.00;99.90;;;;;;4972715;28;20488;-86
2024/02/24 08:13:20;;;;;;;3.63;1.38;;;6.10;99.90;;;;;;4976911;28;20045;-87
2024/02/24 08:15:45;;;;;;;3.50;1.05;;;6.20;99.90;;;;;;4976778;28;20625;-87
2024/02/24 08:18:11;;;;;;;3.20;1.10;;;6.20;99.90;;;;;;4971574;28;20061;-86
2024/02/24 08:20:36;;;;;;;2.53;1.10;;;6.30;99.90;;;;;;4985476;28;20022;-87
2024/02/24 08:23:02;;;;;;;3.60;1.30;;;6.30;99.90;;;;;;4976493;28;20033;-85
2024/02/24 08:25:28;;;;;;;2.80;1.48;;;6.30;99.90;;;;;;4987933;28;20041;-86
2024/02/24 08:27:53;;;;;;;3.80;1.60;;;6.40;99.90;;;;;;4972556;28;20026;-86
2024/02/24 08:30:19;;;;;;;7.78;2.08;;;6.40;99.90;;;;;;4976313;28;20210;-87
2024/02/24 08:32:44;;;;;;;4.65;1.85;;;6.40;99.90;;;;;;4994684;28;20034;-87
2024/02/24 08:35:10;;;;;;;3.10;1.73;;;6.40;99.90;;;;;;4978511;28;20096;-87
2024/02/24 08:37:36;;;;;;;3.78;1.55;;;6.40;99.90;;;;;;4975341;28;20501;-87
2024/02/24 08:40:01;;;;;;;3.00;1.00;;;6.60;99.90;;;;;;4979805;28;20037;-86
2024/02/24 08:42:27;;;;;;;2.40;1.20;;;6.70;99.90;;;;;;4999736;28;20030;-86
2024/02/24 08:44:53;;;;;;;4.00;1.50;;;6.70;99.90;;;;;;4967559;28;20056;-86
2024/02/24 08:47:18;;;;;;;3.03;1.20;;;6.80;99.90;;;;;;4971419;28;20038;-87
2024/02/24 08:49:44;;;;;;;2.10;1.10;;;6.90;99.90;;;;;;4969855;28;20515;-86
2024/02/24 08:52:09;;;;;;;3.90;1.20;;;6.90;99.90;;;;;;4966127;28;20022;-86
2024/02/24 08:54:35;;;;;;;2.17;0.90;;;7.00;99.90;;;;;;4971196;28;20126;-87
2024/02/24 08:57:00;;;;;;;2.20;1.00;;;7.10;99.90;;;;;;4975903;28;20038;-87
2024/02/24 08:59:26;;;;;;;2.63;0.88;;;7.10;99.90;;;;;;4974425;28;20023;-86
2024/02/24 09:01:55;;;;;;;0.77;0.30;;;7.00;99.90;;;;;;4976793;28;20026;-86
2024/02/24 09:04:21;;;;;;;1.75;0.20;;;6.70;99.90;;;;;;4973703;28;20026;-87
2024/02/24 09:06:46;;;;;;;1.40;0.30;;;6.30;99.90;;;;;;4963750;28;20019;-87
2024/02/24 09:09:14;;;;;;;0.82;0.40;;;6.00;99.90;;;;;;4978056;28;20030;-87
2024/02/24 09:11:41;;;;;;;2.78;0.75;;;5.90;99.90;;;;;;4974552;28;20030;-87
2024/02/24 09:14:07;;;;;;;3.15;0.80;;;5.80;99.90;;;;;;4967998;28;20038;-86
2024/02/24 09:16:32;;;;;;;3.03;0.70;;;5.70;99.90;;;;;;4969957;28;20487;-87
2024/02/24 09:18:58;;;;;;;4.38;1.30;;;5.70;99.90;;;;;;4972521;28;20026;-88
2024/02/24 09:21:24;;;;;;;2.40;1.05;;;5.70;99.90;;;;;;4971344;28;20026;-87
2024/02/24 09:23:49;;;;;;;2.42;1.00;;;5.70;99.90;;;;;;4968604;28;20062;-86
2024/02/24 09:26:16;;;;;;;1.85;0.98;;;5.80;99.90;;;;;;4973122;28;20038;-87
2024/02/24 09:28:41;;;;;;;3.15;1.85;;;5.80;99.90;;;;;;4968444;28;20198;-87
2024/02/24 09:31:09;;;;;;;3.10;1.35;;;5.80;99.90;;;;;;4970915;28;20552;-87
2024/02/24 09:33:35;;;;;;;2.63;1.40;;;5.70;99.90;;;;;;4972202;28;20038;-87
2024/02/24 09:36:00;;;;;;;4.03;2.35;;;5.70;99.90;;;;;;4964049;28;20037;-88
2024/02/24 09:38:26;;;;;;;6.47;2.70;;;5.80;99.90;;;;;;4971173;28;20106;-88
2024/02/24 09:40:52;;;;;;;6.55;3.13;;;5.80;99.90;;;;;;4971194;28;20022;-87
2024/02/24 09:43:18;;;;;;;5.63;2.60;;;5.80;99.90;;;;;;4964507;28;20037;-87
2024/02/24 09:45:47;;;;;;;3.50;1.98;;;5.70;99.90;;;;;;4969237;28;20530;-88
2024/02/24 09:48:13;;;;;;;6.43;3.00;;;5.70;99.90;;;;;;4967579;28;20393;-88
2024/02/24 09:50:40;;;;;;;4.50;2.85;;;5.70;99.90;;;;;;4971038;28;20027;-89
2024/02/24 09:53:06;;;;;;;3.80;2.10;;;5.70;99.90;;;;;;4964213;28;20422;-88
2024/02/24 09:55:32;;;;;;;4.03;2.65;;;5.80;99.90;;;;;;4962348;28;20055;-88
2024/02/24 09:58:00;;;;;;;4.22;2.90;;;5.80;99.90;;;;;;4969932;28;20101;-88
2024/02/24 10:00:26;;;;;;;5.25;2.88;;;5.80;99.90;;;;;;4968471;28;20033;-88
2024/02/24 10:02:52;;;;;;;6.22;3.30;;;5.80;99.90;;;;;;4965060;28;20470;-88
2024/02/24 10:05:18;;;;;;;7.55;3.33;;;5.80;99.90;;;;;;4965422;28;20026;-88
2024/02/24 10:07:45;;;;;;;5.60;3.13;;;5.70;99.90;;;;;;4963382;28;20085;-88
2024/02/24 10:10:14;;;;;;;5.53;3.25;;;5.70;99.90;;;;;;4966012;28;20097;-85
2024/02/24 10:13:03;;;;;;;4.50;2.83;;;5.80;99.90;;;;;;4970884;28;20118;-86
2024/02/24 10:15:29;;;;;;;5.20;3.60;;;5.90;99.90;;;;;;4965145;28;20090;-87
2024/02/24 10:17:57;;;;;;;7.50;3.80;;;5.90;99.90;;;;;;4975942;28;20105;-87
2024/02/24 10:20:23;;;;;;;4.32;3.22;;;6.00;99.90;;;;;;4965561;28;20022;-87
2024/02/24 10:22:49;;;;;;;5.72;3.55;;;6.10;99.90;;;;;;4973368;28;20490;-87
2024/02/24 10:25:14;;;;;;;6.95;3.88;;;6.20;99.90;;;;;;4992705;28;20491;-86
2024/02/24 10:27:42;;;;;;;5.97;3.72;;;6.40;99.90;;;;;;4990991;28;20038;-87
2024/02/24 10:30:09;;;;;;;6.75;3.47;;;6.50;99.90;;;;;;4991858;28;20030;-87
2024/02/24 10:32:35;;;;;;;6.40;3.47;;;6.60;99.90;;;;;;4989665;28;20522;-87
2024/02/24 10:35:03;;;;;;;6.65;3.60;;;6.60;99.90;;;;;;4970832;28;20035;-87
2024/02/24 10:37:36;;;;;;;4.75;3.00;;;6.70;99.90;;;;;;4971728;28;20037;-88
2024/02/24 10:40:05;;;;;;;4.95;3.58;;;6.70;99.90;;;;;;4977102;28;20103;-88
2024/02/24 10:42:32;;;;;;;5.95;3.30;;;6.70;99.90;;;;;;4979005;28;20105;-88
2024/02/24 10:44:57;;;;;;;5.22;2.97;;;6.80;99.90;;;;;;4977754;28;20069;-87
2024/02/24 10:47:24;;;;;;;5.57;3.67;;;6.70;99.90;;;;;;4975282;28;20066;-87
2024/02/24 10:49:50;;;;;;;5.78;3.50;;;6.80;99.90;;;;;;4973617;28;20022;-86
2024/02/24 10:52:18;;;;;;;5.32;3.25;;;6.90;99.90;;;;;;4978680;28;20077;-89
2024/02/24 10:54:45;;;;;;;6.20;3.22;;;7.10;99.90;;;;;;4978180;28;20026;-89
2024/02/24 10:57:13;;;;;;;3.22;2.20;;;7.30;99.90;;;;;;4976564;28;20046;-90
2024/02/24 10:59:39;;;;;;;4.13;2.45;;;7.50;99.90;;;;;;4988276;28;20033;-85
2024/02/24 11:02:11;;;;;;;6.05;2.85;;;7.50;99.90;;;;;;4974139;28;20190;-83
2024/02/24 11:04:38;;;;;;;3.85;2.00;;;7.50;99.90;;;;;;4976809;28;20026;-87
2024/02/24 11:07:15;;;;;;;5.70;2.00;;;7.60;99.90;;;;;;4977344;28;20026;-86
2024/02/24 11:09:40;;;;;;;6.32;2.03;;;7.70;99.90;;;;;;4974583;28;20486;-87
2024/02/24 11:12:11;;;;;;;3.88;1.95;;;7.80;99.90;;;;;;4975039;28;20049;-86
2024/02/24 11:14:52;;;;;;;4.50;1.42;;;7.70;99.90;;;;;;4976083;28;20064;-86
2024/02/24 11:17:51;;;;;;;3.28;1.45;;;7.60;99.90;;;;;;4979372;28;20093;-84
2024/02/24 11:20:37;;;;;;;3.58;1.00;;;7.50;99.90;;;;;;4992734;28;20471;-86
2024/02/24 11:23:25;;;;;;;6.45;1.65;;;7.50;99.90;;;;;;4982499;28;20148;-87
2024/02/24 11:26:19;;;;;;;9.15;1.33;;;7.40;99.90;;;;;;4969980;28;20034;-86
2024/02/24 11:28:47;;;;;;;4.50;1.17;;;7.40;99.90;;;;;;4954328;28;20554;-85
2024/02/24 11:31:17;;;;;;;2.85;1.73;;;7.40;99.90;;;;;;4970570;28;20124;-85
2024/02/24 11:33:43;;;;;;;2.75;0.93;;;7.50;99.90;;;;;;4970499;28;20038;-86
2024/02/24 11:36:10;;;;;;;4.00;1.00;;;7.50;99.90;;;;;;4979273;28;20030;-86
2024/02/24 11:38:36;;;;;;;4.40;1.08;;;7.60;99.90;;;;;;4969479;28;20038;-85
2024/02/24 11:41:05;;;;;;;5.03;1.25;;;7.50;99.90;;;;;;4968659;28;20500;-85
2024/02/24 11:43:31;;;;;;;7.63;1.00;;;7.50;99.90;;;;;;4966889;28;20030;-86
2024/02/24 11:45:57;;;;;;;2.00;0.52;;;7.50;99.90;;;;;;4982507;28;20034;-85
2024/02/24 11:48:23;;;;;;;2.97;0.57;;;7.50;99.90;;;;;;4963459;28;20426;-86
2024/02/24 11:50:50;;;;;;;2.10;0.68;;;7.50;99.90;;;;;;4972464;28;20041;-85
2024/02/24 11:53:18;;;;;;;4.13;0.60;;;7.60;99.90;;;;;;4970398;28;20065;-85
2024/02/24 11:55:45;;;;;;;3.28;0.50;;;7.60;99.90;;;;;;4969802;28;20026;-85
2024/02/24 11:58:17;;;;;;;1.48;0.40;;;7.50;99.90;;;;;;4975186;28;20109;-85
2024/02/24 12:00:43;;;;;;;2.50;0.50;;;7.40;99.90;;;;;;4973089;28;20027;-85
2024/02/24 12:03:15;;;;;;;6.43;0.60;;;7.40;99.90;;;;;;4965737;28;20297;-85
2024/02/24 12:05:42;;;;;;;3.92;0.68;;;7.40;99.90;;;;;;4967486;28;20501;-85
2024/02/24 12:08:16;;;;;;;1.98;0.50;;;7.40;99.90;;;;;;4966597;28;20058;-85
2024/02/24 12:10:42;;;;;;;2.33;0.40;;;7.60;99.90;;;;;;4976728;28;20034;-85
2024/02/24 12:13:10;;;;;;;3.65;0.50;;;7.60;99.90;;;;;;4972623;28;20081;-85
2024/02/24 12:15:48;;;;;;;3.15;0.50;;;7.50;99.90;;;;;;4976805;28;20026;-87
2024/02/24 12:18:14;;;;;;;3.72;0.60;;;7.40;99.90;;;;;;4971997;28;20066;-87
2024/02/24 12:20:48;;;;;;;2.88;0.50;;;7.30;99.90;;;;;;4975215;28;20454;-84
2024/02/24 12:23:15;;;;;;;1.60;0.40;;;7.20;99.90;;;;;;4975825;28;20030;-86
2024/02/24 12:25:41;;;;;;;2.83;0.60;;;7.10;99.90;;;;;;4973226;28;20027;-83
2024/02/24 12:28:07;;;;;;;4.05;0.40;;;7.10;99.90;;;;;;4978471;28;20027;-84
2024/02/24 12:30:40;;;;;;;1.80;0.40;;;7.10;99.90;;;;;;4970960;28;20074;-85
2024/02/24 12:33:10;;;;;;;2.95;0.40;;;7.10;99.90;;;;;;4985462;28;20078;-85
2024/02/24 12:35:36;;;;;;;2.42;0.40;;;7.10;99.90;;;;;;4967982;28;20031;-85
2024/02/24 12:38:03;;;;;;;5.30;0.50;;;7.10;99.90;;;;;;4968465;28;20047;-86
2024/02/24 12:40:30;;;;;;;3.08;0.38;;;7.10;99.90;;;;;;4976130;28;20057;-85
2024/02/24 12:42:57;;;;;;;3.92;0.50;;;7.10;99.90;;;;;;4978124;28;20026;-83
2024/02/24 12:45:23;;;;;;;4.05;0.40;;;7.20;99.90;;;;;;4974722;28;20022;-85
2024/02/24 12:47:49;;;;;;;2.42;0.30;;;7.20;99.90;;;;;;4972033;28;20113;-85
2024/02/24 12:50:20;;;;;;;2.20;0.30;;;7.20;99.90;;;;;;4966194;28;20030;-85
2024/02/24 12:52:46;;;;;;;2.70;0.40;;;7.20;99.90;;;;;;4980276;28;20053;-85
2024/02/24 12:55:12;;;;;;;1.63;0.30;;;7.20;99.90;;;;;;4975285;28;20113;-86